sensor_id;sensor_type;location;lat;lon;timestamp;pressure;altitude;pressure_sealevel;temperature;humidity
43298;BME280;28892;55.640;37.532;2022-12-11T00:01:28;97876.97;;;2.13;72.65
43298;BME280;28892;55.640;37.532;2022-12-11T00:03:54;97878.91;;;2.02;72.96
43298;BME280;28892;55.640;37.532;2022-12-11T00:06:21;97869.44;;;2.09;73.32
43298;BME280;28892;55.640;37.532;2022-12-11T00:08:51;97873.69;;;2.11;73.13
43298;BME280;28892;55.640;37.532;2022-12-11T00:11:18;97869.28;;;2.03;73.42
43298;BME280;28892;55.640;37.532;2022-12-11T00:13:44;97865.34;;;2.07;73.43
43298;BME280;28892;55.640;37.532;2022-12-11T00:16:10;97860.44;;;2.04;73.75
43298;BME280;28892;55.640;37.532;2022-12-11T00:18:36;97867.47;;;2.12;73.80
43298;BME280;28892;55.640;37.532;2022-12-11T00:21:03;97879.94;;;2.18;73.37
43298;BME280;28892;55.640;37.532;2022-12-11T00:23:29;97869.13;;;2.13;73.41
43298;BME280;28892;55.640;37.532;2022-12-11T00:25:55;97861.78;;;2.25;72.65
43298;BME280;28892;55.640;37.532;2022-12-11T00:28:21;97865.88;;;2.19;72.82
43298;BME280;28892;55.640;37.532;2022-12-11T00:30:47;97873.34;;;2.05;73.23
43298;BME280;28892;55.640;37.532;2022-12-11T00:33:13;97866.50;;;2.13;73.33
43298;BME280;28892;55.640;37.532;2022-12-11T00:35:41;97872.22;;;2.16;73.40
43298;BME280;28892;55.640;37.532;2022-12-11T00:38:08;97870.09;;;2.12;73.45
43298;BME280;28892;55.640;37.532;2022-12-11T00:40:35;97855.91;;;2.22;73.25
43298;BME280;28892;55.640;37.532;2022-12-11T00:43:01;97854.25;;;2.13;73.51
43298;BME280;28892;55.640;37.532;2022-12-11T00:45:26;97864.53;;;2.15;73.66
43298;BME280;28892;55.640;37.532;2022-12-11T00:47:55;97872.88;;;2.18;73.72
43298;BME280;28892;55.640;37.532;2022-12-11T00:50:35;97870.75;;;2.22;73.56
43298;BME280;28892;55.640;37.532;2022-12-11T00:53:01;97868.47;;;2.19;73.58
43298;BME280;28892;55.640;37.532;2022-12-11T00:55:26;97874.84;;;2.16;73.72
43298;BME280;28892;55.640;37.532;2022-12-11T00:57:54;97879.44;;;2.22;73.50
43298;BME280;28892;55.640;37.532;2022-12-11T01:00:20;97879.25;;;2.16;72.99
43298;BME280;28892;55.640;37.532;2022-12-11T01:02:47;97893.00;;;2.09;73.54
43298;BME280;28892;55.640;37.532;2022-12-11T01:05:14;97899.50;;;2.05;73.96
43298;BME280;28892;55.640;37.532;2022-12-11T01:07:42;97891.66;;;2.05;74.35
43298;BME280;28892;55.640;37.532;2022-12-11T01:10:11;97893.31;;;2.15;73.95
43298;BME280;28892;55.640;37.532;2022-12-11T01:12:54;97888.75;;;2.25;73.46
43298;BME280;28892;55.640;37.532;2022-12-11T01:15:28;97882.06;;;2.22;73.98
43298;BME280;28892;55.640;37.532;2022-12-11T01:17:54;97884.00;;;2.12;73.54
43298;BME280;28892;55.640;37.532;2022-12-11T01:20:21;97879.59;;;2.21;73.44
43298;BME280;28892;55.640;37.532;2022-12-11T01:22:51;97879.09;;;2.17;74.00
43298;BME280;28892;55.640;37.532;2022-12-11T01:25:18;97880.06;;;2.08;74.27
43298;BME280;28892;55.640;37.532;2022-12-11T01:27:43;97881.22;;;2.14;74.49
43298;BME280;28892;55.640;37.532;2022-12-11T01:30:09;97879.44;;;2.22;74.17
43298;BME280;28892;55.640;37.532;2022-12-11T01:32:35;97875.19;;;2.30;73.64
43298;BME280;28892;55.640;37.532;2022-12-11T01:35:05;97878.13;;;2.18;73.84
43298;BME280;28892;55.640;37.532;2022-12-11T01:37:32;97881.88;;;2.16;73.88
43298;BME280;28892;55.640;37.532;2022-12-11T01:39:58;97876.47;;;2.17;74.27
43298;BME280;28892;55.640;37.532;2022-12-11T01:42:24;97880.59;;;2.20;74.23
43298;BME280;28892;55.640;37.532;2022-12-11T01:47:16;97882.72;;;2.25;74.63
43298;BME280;28892;55.640;37.532;2022-12-11T01:49:42;97883.50;;;2.25;74.56
43298;BME280;28892;55.640;37.532;2022-12-11T01:52:15;97880.75;;;2.27;74.87
43298;BME280;28892;55.640;37.532;2022-12-11T01:54:43;97881.09;;;2.23;74.63
43298;BME280;28892;55.640;37.532;2022-12-11T01:57:10;97877.00;;;2.29;74.54
43298;BME280;28892;55.640;37.532;2022-12-11T01:59:38;97892.84;;;2.28;74.74
43298;BME280;28892;55.640;37.532;2022-12-11T02:02:19;97888.28;;;2.38;75.24
43298;BME280;28892;55.640;37.532;2022-12-11T02:04:46;97901.34;;;2.30;74.69
43298;BME280;28892;55.640;37.532;2022-12-11T02:07:12;97890.41;;;2.34;74.45
43298;BME280;28892;55.640;37.532;2022-12-11T02:21:09;97905.16;;;2.52;74.47
43298;BME280;28892;55.640;37.532;2022-12-11T02:32:54;97924.28;;;2.53;73.95
43298;BME280;28892;55.640;37.532;2022-12-11T02:35:44;97929.81;;;2.41;73.91
43298;BME280;28892;55.640;37.532;2022-12-11T02:38:25;97926.56;;;2.47;74.22
43298;BME280;28892;55.640;37.532;2022-12-11T02:44:20;97923.59;;;2.42;74.16
43298;BME280;28892;55.640;37.532;2022-12-11T02:47:00;97931.28;;;2.35;73.92
43298;BME280;28892;55.640;37.532;2022-12-11T02:49:53;97929.69;;;2.43;74.55
43298;BME280;28892;55.640;37.532;2022-12-11T02:52:25;97932.59;;;2.31;74.32
43298;BME280;28892;55.640;37.532;2022-12-11T02:54:59;97927.00;;;2.26;74.55
43298;BME280;28892;55.640;37.532;2022-12-11T02:58:25;97938.34;;;2.51;74.69
43298;BME280;28892;55.640;37.532;2022-12-11T03:01:55;97958.31;;;2.44;73.61
43298;BME280;28892;55.640;37.532;2022-12-11T03:04:23;97959.25;;;2.43;73.47
43298;BME280;28892;55.640;37.532;2022-12-11T03:06:52;97964.19;;;2.38;73.68
43298;BME280;28892;55.640;37.532;2022-12-11T03:09:20;97950.59;;;2.34;73.75
43298;BME280;28892;55.640;37.532;2022-12-11T03:11:45;97957.78;;;2.32;73.78
43298;BME280;28892;55.640;37.532;2022-12-11T03:14:11;97963.00;;;2.24;74.00
43298;BME280;28892;55.640;37.532;2022-12-11T03:16:41;97966.94;;;2.28;74.02
43298;BME280;28892;55.640;37.532;2022-12-11T03:22:19;97961.72;;;2.36;74.43
43298;BME280;28892;55.640;37.532;2022-12-11T03:24:51;97970.03;;;2.23;74.43
43298;BME280;28892;55.640;37.532;2022-12-11T03:27:24;97969.72;;;2.27;74.21
43298;BME280;28892;55.640;37.532;2022-12-11T03:29:56;97975.41;;;2.22;74.08
43298;BME280;28892;55.640;37.532;2022-12-11T03:32:27;97974.44;;;2.23;74.67
43298;BME280;28892;55.640;37.532;2022-12-11T03:35:03;97976.72;;;2.26;74.58
43298;BME280;28892;55.640;37.532;2022-12-11T03:37:34;97975.75;;;2.27;74.69
43298;BME280;28892;55.640;37.532;2022-12-11T03:40:06;97976.72;;;2.26;74.36
43298;BME280;28892;55.640;37.532;2022-12-11T03:42:38;97989.66;;;2.28;74.71
43298;BME280;28892;55.640;37.532;2022-12-11T03:45:05;97990.97;;;2.23;74.58
43298;BME280;28892;55.640;37.532;2022-12-11T03:47:33;97991.44;;;2.27;74.31
43298;BME280;28892;55.640;37.532;2022-12-11T03:50:01;97993.13;;;2.28;74.22
43298;BME280;28892;55.640;37.532;2022-12-11T03:52:29;97988.53;;;2.30;74.01
43298;BME280;28892;55.640;37.532;2022-12-11T03:54:59;97996.53;;;2.29;74.02
43298;BME280;28892;55.640;37.532;2022-12-11T03:57:28;98000.13;;;2.28;74.26
43298;BME280;28892;55.640;37.532;2022-12-11T03:59:56;98003.88;;;2.25;74.38
43298;BME280;28892;55.640;37.532;2022-12-11T04:02:21;98005.50;;;2.26;74.46
43298;BME280;28892;55.640;37.532;2022-12-11T04:04:47;98005.50;;;2.26;74.01
43298;BME280;28892;55.640;37.532;2022-12-11T04:07:15;98011.91;;;2.32;74.21
43298;BME280;28892;55.640;37.532;2022-12-11T04:09:44;98027.78;;;2.30;73.91
43298;BME280;28892;55.640;37.532;2022-12-11T04:12:10;98025.00;;;2.23;73.95
43298;BME280;28892;55.640;37.532;2022-12-11T04:14:35;98011.72;;;2.25;73.83
43298;BME280;28892;55.640;37.532;2022-12-11T04:17:19;98015.00;;;2.27;73.15
43298;BME280;28892;55.640;37.532;2022-12-11T04:20:10;98018.91;;;2.23;73.69
43298;BME280;28892;55.640;37.532;2022-12-11T04:22:54;98014.97;;;2.11;73.55
43298;BME280;28892;55.640;37.532;2022-12-11T04:25:38;98016.72;;;2.02;73.73
43298;BME280;28892;55.640;37.532;2022-12-11T04:28:04;98023.88;;;2.00;74.22
43298;BME280;28892;55.640;37.532;2022-12-11T04:30:29;98027.34;;;2.00;74.09
43298;BME280;28892;55.640;37.532;2022-12-11T04:32:55;98029.28;;;1.98;74.08
43298;BME280;28892;55.640;37.532;2022-12-11T04:35:21;98030.78;;;2.09;73.37
43298;BME280;28892;55.640;37.532;2022-12-11T04:37:48;98036.34;;;2.06;73.62
43298;BME280;28892;55.640;37.532;2022-12-11T04:40:16;98035.84;;;2.02;73.81
43298;BME280;28892;55.640;37.532;2022-12-11T04:42:42;98028.97;;;2.01;73.84
43298;BME280;28892;55.640;37.532;2022-12-11T04:45:08;98037.34;;;2.05;73.70
43298;BME280;28892;55.640;37.532;2022-12-11T04:47:35;98029.81;;;2.02;73.58
43298;BME280;28892;55.640;37.532;2022-12-11T04:50:03;98028.97;;;2.01;73.66
43298;BME280;28892;55.640;37.532;2022-12-11T04:52:28;98030.13;;;2.07;73.15
43298;BME280;28892;55.640;37.532;2022-12-11T04:54:54;98031.63;;;2.09;72.88
43298;BME280;28892;55.640;37.532;2022-12-11T04:57:20;98032.06;;;1.97;73.20
43298;BME280;28892;55.640;37.532;2022-12-11T04:59:46;98029.59;;;1.95;73.49
43298;BME280;28892;55.640;37.532;2022-12-11T05:02:13;98019.25;;;1.85;73.70
43298;BME280;28892;55.640;37.532;2022-12-11T05:04:38;98016.94;;;1.82;74.72
43298;BME280;28892;55.640;37.532;2022-12-11T05:07:04;98015.66;;;1.86;74.32
43298;BME280;28892;55.640;37.532;2022-12-11T05:09:29;98023.19;;;1.89;74.13
43298;BME280;28892;55.640;37.532;2022-12-11T05:11:55;98022.06;;;1.92;73.98
43298;BME280;28892;55.640;37.532;2022-12-11T05:14:21;98032.97;;;1.87;74.13
43298;BME280;28892;55.640;37.532;2022-12-11T05:16:46;98044.59;;;1.85;74.41
43298;BME280;28892;55.640;37.532;2022-12-11T05:19:12;98041.66;;;1.88;74.32
43298;BME280;28892;55.640;37.532;2022-12-11T05:21:38;98047.41;;;1.91;74.35
43298;BME280;28892;55.640;37.532;2022-12-11T05:24:04;98054.41;;;1.91;74.11
43298;BME280;28892;55.640;37.532;2022-12-11T05:26:29;98054.28;;;1.92;73.92
43298;BME280;28892;55.640;37.532;2022-12-11T05:28:55;98059.66;;;1.91;73.93
43298;BME280;28892;55.640;37.532;2022-12-11T05:31:23;98065.41;;;1.94;74.00
43298;BME280;28892;55.640;37.532;2022-12-11T05:33:49;98074.88;;;1.95;73.65
43298;BME280;28892;55.640;37.532;2022-12-11T05:36:19;98077.19;;;1.99;74.08
43298;BME280;28892;55.640;37.532;2022-12-11T05:38:45;98075.41;;;1.99;73.83
43298;BME280;28892;55.640;37.532;2022-12-11T05:41:13;98097.50;;;2.05;73.55
43298;BME280;28892;55.640;37.532;2022-12-11T05:43:39;98103.75;;;2.12;73.25
43298;BME280;28892;55.640;37.532;2022-12-11T05:48:42;98110.66;;;1.95;73.00
43298;BME280;28892;55.640;37.532;2022-12-11T05:51:09;98112.78;;;1.91;73.25
43298;BME280;28892;55.640;37.532;2022-12-11T05:53:39;98116.72;;;1.95;73.69
43298;BME280;28892;55.640;37.532;2022-12-11T05:56:16;98124.00;;;2.10;73.81
43298;BME280;28892;55.640;37.532;2022-12-11T05:58:43;98122.63;;;1.98;73.44
43298;BME280;28892;55.640;37.532;2022-12-11T06:01:13;98128.03;;;1.96;73.59
43298;BME280;28892;55.640;37.532;2022-12-11T06:03:39;98135.88;;;1.96;73.08
43298;BME280;28892;55.640;37.532;2022-12-11T06:06:05;98145.41;;;1.79;73.18
43298;BME280;28892;55.640;37.532;2022-12-11T06:08:32;98152.25;;;1.80;73.74
43298;BME280;28892;55.640;37.532;2022-12-11T06:10:58;98155.03;;;1.78;73.74
43298;BME280;28892;55.640;37.532;2022-12-11T06:13:24;98159.13;;;1.81;73.76
43298;BME280;28892;55.640;37.532;2022-12-11T06:15:50;98165.22;;;1.90;73.55
43298;BME280;28892;55.640;37.532;2022-12-11T06:18:16;98165.81;;;2.02;73.19
43298;BME280;28892;55.640;37.532;2022-12-11T06:20:42;98167.09;;;1.98;72.48
43298;BME280;28892;55.640;37.532;2022-12-11T06:23:08;98170.59;;;1.88;72.74
43298;BME280;28892;55.640;37.532;2022-12-11T06:25:34;98166.81;;;1.83;72.93
43298;BME280;28892;55.640;37.532;2022-12-11T06:27:59;98173.38;;;1.87;73.17
43298;BME280;28892;55.640;37.532;2022-12-11T06:30:25;98176.66;;;1.89;72.83
43298;BME280;28892;55.640;37.532;2022-12-11T06:32:52;98174.41;;;1.94;72.93
43298;BME280;28892;55.640;37.532;2022-12-11T06:35:17;98176.53;;;1.90;72.56
43298;BME280;28892;55.640;37.532;2022-12-11T06:37:43;98172.09;;;1.91;72.97
43298;BME280;28892;55.640;37.532;2022-12-11T06:40:09;98168.38;;;1.93;72.56
43298;BME280;28892;55.640;37.532;2022-12-11T06:42:37;98167.84;;;1.90;73.07
43298;BME280;28892;55.640;37.532;2022-12-11T06:45:03;98159.84;;;1.91;72.73
43298;BME280;28892;55.640;37.532;2022-12-11T06:47:29;98168.00;;;1.88;72.70
43298;BME280;28892;55.640;37.532;2022-12-11T06:49:56;98172.41;;;1.88;73.01
43298;BME280;28892;55.640;37.532;2022-12-11T06:52:22;98171.78;;;1.94;72.23
43298;BME280;28892;55.640;37.532;2022-12-11T06:54:49;98180.78;;;1.91;72.39
43298;BME280;28892;55.640;37.532;2022-12-11T06:57:15;98175.84;;;1.88;72.51
43298;BME280;28892;55.640;37.532;2022-12-11T06:59:41;98179.28;;;1.89;72.51
43298;BME280;28892;55.640;37.532;2022-12-11T07:02:11;98182.94;;;1.96;72.28
43298;BME280;28892;55.640;37.532;2022-12-11T07:04:39;98181.00;;;1.98;72.10
43298;BME280;28892;55.640;37.532;2022-12-11T07:07:05;98191.75;;;1.95;72.01
43298;BME280;28892;55.640;37.532;2022-12-11T07:09:31;98199.44;;;1.97;71.64
43298;BME280;28892;55.640;37.532;2022-12-11T07:11:56;98200.88;;;1.91;71.82
43298;BME280;28892;55.640;37.532;2022-12-11T07:14:22;98198.47;;;1.98;71.86
43298;BME280;28892;55.640;37.532;2022-12-11T07:16:48;98199.91;;;1.92;71.77
43298;BME280;28892;55.640;37.532;2022-12-11T07:19:14;98202.50;;;1.92;71.91
43298;BME280;28892;55.640;37.532;2022-12-11T07:21:39;98194.84;;;1.90;71.91
43298;BME280;28892;55.640;37.532;2022-12-11T07:24:06;98191.84;;;1.85;71.88
43298;BME280;28892;55.640;37.532;2022-12-11T07:26:32;98196.63;;;1.90;72.13
43298;BME280;28892;55.640;37.532;2022-12-11T07:28:58;98198.63;;;1.96;72.03
43298;BME280;28892;55.640;37.532;2022-12-11T07:31:26;98201.47;;;2.03;72.00
43298;BME280;28892;55.640;37.532;2022-12-11T07:33:58;98210.28;;;2.02;70.84
43298;BME280;28892;55.640;37.532;2022-12-11T07:36:24;98213.19;;;1.99;70.87
43298;BME280;28892;55.640;37.532;2022-12-11T07:38:50;98210.88;;;1.95;70.10
43298;BME280;28892;55.640;37.532;2022-12-11T07:41:16;98206.53;;;2.04;69.13
43298;BME280;28892;55.640;37.532;2022-12-11T07:43:51;98198.72;;;1.86;69.65
43298;BME280;28892;55.640;37.532;2022-12-11T07:46:20;98209.25;;;1.76;70.58
43298;BME280;28892;55.640;37.532;2022-12-11T07:48:46;98187.97;;;1.71;70.64
43298;BME280;28892;55.640;37.532;2022-12-11T07:51:35;98187.78;;;1.91;71.16
43298;BME280;28892;55.640;37.532;2022-12-11T07:54:07;98206.16;;;1.99;70.54
43298;BME280;28892;55.640;37.532;2022-12-11T07:56:33;98213.50;;;1.77;70.11
43298;BME280;28892;55.640;37.532;2022-12-11T07:59:00;98223.81;;;1.61;71.05
43298;BME280;28892;55.640;37.532;2022-12-11T08:01:27;98230.31;;;1.57;71.66
43298;BME280;28892;55.640;37.532;2022-12-11T08:03:54;98233.56;;;1.69;71.52
43298;BME280;28892;55.640;37.532;2022-12-11T08:06:24;98220.91;;;1.64;72.04
43298;BME280;28892;55.640;37.532;2022-12-11T08:08:52;98223.38;;;1.65;72.17
43298;BME280;28892;55.640;37.532;2022-12-11T08:11:18;98231.88;;;1.67;72.02
43298;BME280;28892;55.640;37.532;2022-12-11T08:13:44;98227.69;;;1.75;71.53
43298;BME280;28892;55.640;37.532;2022-12-11T08:16:12;98226.44;;;1.79;71.96
43298;BME280;28892;55.640;37.532;2022-12-11T08:18:39;98240.91;;;1.73;71.89
43298;BME280;28892;55.640;37.532;2022-12-11T08:21:06;98239.75;;;1.86;70.88
43298;BME280;28892;55.640;37.532;2022-12-11T08:23:34;98227.84;;;1.73;71.47
43298;BME280;28892;55.640;37.532;2022-12-11T08:26:04;98241.97;;;1.80;71.23
43298;BME280;28892;55.640;37.532;2022-12-11T08:28:33;98252.88;;;1.76;71.50
43298;BME280;28892;55.640;37.532;2022-12-11T08:31:08;98248.94;;;1.72;71.76
43298;BME280;28892;55.640;37.532;2022-12-11T08:33:35;98244.75;;;1.79;71.58
43298;BME280;28892;55.640;37.532;2022-12-11T08:36:08;98263.41;;;1.84;71.46
43298;BME280;28892;55.640;37.532;2022-12-11T08:38:35;98268.03;;;1.72;71.91
43298;BME280;28892;55.640;37.532;2022-12-11T08:41:09;98269.09;;;1.98;71.70
43298;BME280;28892;55.640;37.532;2022-12-11T08:43:43;98262.81;;;1.72;71.39
43298;BME280;28892;55.640;37.532;2022-12-11T08:46:10;98269.97;;;1.88;70.98
43298;BME280;28892;55.640;37.532;2022-12-11T08:48:38;98273.25;;;1.72;71.31
43298;BME280;28892;55.640;37.532;2022-12-11T08:51:16;98263.28;;;1.86;72.02
43298;BME280;28892;55.640;37.532;2022-12-11T08:53:42;98269.09;;;1.79;71.86
43298;BME280;28892;55.640;37.532;2022-12-11T08:56:28;98280.16;;;2.09;71.60
43298;BME280;28892;55.640;37.532;2022-12-11T08:58:58;98276.34;;;2.04;70.48
43298;BME280;28892;55.640;37.532;2022-12-11T09:01:39;98280.16;;;1.91;70.77
43298;BME280;28892;55.640;37.532;2022-12-11T09:04:15;98282.38;;;1.86;71.32
43298;BME280;28892;55.640;37.532;2022-12-11T09:06:41;98286.50;;;1.89;71.00
43298;BME280;28892;55.640;37.532;2022-12-11T09:09:09;98257.66;;;1.80;71.08
43298;BME280;28892;55.640;37.532;2022-12-11T09:11:35;98280.06;;;2.01;71.92
43298;BME280;28892;55.640;37.532;2022-12-11T09:14:05;98268.69;;;2.29;71.27
43298;BME280;28892;55.640;37.532;2022-12-11T09:16:48;98260.59;;;2.40;70.58
43298;BME280;28892;55.640;37.532;2022-12-11T09:19:29;98283.03;;;2.43;70.36
43298;BME280;28892;55.640;37.532;2022-12-11T09:22:16;98275.78;;;2.36;70.26
43298;BME280;28892;55.640;37.532;2022-12-11T09:24:41;98273.88;;;2.47;68.82
43298;BME280;28892;55.640;37.532;2022-12-11T09:27:07;98280.88;;;2.38;69.08
43298;BME280;28892;55.640;37.532;2022-12-11T09:29:33;98274.16;;;2.17;69.86
43298;BME280;28892;55.640;37.532;2022-12-11T09:32:02;98294.84;;;2.29;69.71
43298;BME280;28892;55.640;37.532;2022-12-11T09:34:27;98314.75;;;2.21;69.19
43298;BME280;28892;55.640;37.532;2022-12-11T09:36:53;98315.50;;;2.14;69.44
43298;BME280;28892;55.640;37.532;2022-12-11T09:39:19;98313.03;;;2.30;69.32
43298;BME280;28892;55.640;37.532;2022-12-11T09:44:56;98325.38;;;2.20;70.19
43298;BME280;28892;55.640;37.532;2022-12-11T09:53:06;98336.06;;;2.27;70.28
43298;BME280;28892;55.640;37.532;2022-12-11T09:56:10;98339.13;;;2.22;70.43
43298;BME280;28892;55.640;37.532;2022-12-11T10:07:15;98322.09;;;2.18;70.00
43298;BME280;28892;55.640;37.532;2022-12-11T10:15:59;98306.97;;;2.12;70.31
43298;BME280;28892;55.640;37.532;2022-12-11T10:18:40;98314.97;;;2.10;70.85
43298;BME280;28892;55.640;37.532;2022-12-11T10:21:06;98310.56;;;2.11;70.38
43298;BME280;28892;55.640;37.532;2022-12-11T10:23:45;98298.22;;;2.21;69.89
43298;BME280;28892;55.640;37.532;2022-12-11T10:26:18;98308.31;;;2.16;70.13
43298;BME280;28892;55.640;37.532;2022-12-11T10:28:44;98309.44;;;2.31;68.87
43298;BME280;28892;55.640;37.532;2022-12-11T10:34:01;98320.81;;;2.22;68.51
43298;BME280;28892;55.640;37.532;2022-12-11T10:36:34;98330.53;;;2.12;68.95
43298;BME280;28892;55.640;37.532;2022-12-11T10:39:01;98323.22;;;1.97;69.17
43298;BME280;28892;55.640;37.532;2022-12-11T10:41:38;98320.44;;;1.99;69.61
43298;BME280;28892;55.640;37.532;2022-12-11T10:47:13;98312.31;;;2.02;70.20
43298;BME280;28892;55.640;37.532;2022-12-11T10:49:59;98310.56;;;2.11;69.58
43298;BME280;28892;55.640;37.532;2022-12-11T10:52:30;98319.84;;;2.05;69.92
43298;BME280;28892;55.640;37.532;2022-12-11T10:55:07;98311.75;;;2.16;69.45
43298;BME280;28892;55.640;37.532;2022-12-11T10:57:42;98293.47;;;1.98;69.09
43298;BME280;28892;55.640;37.532;2022-12-11T11:00:35;98285.84;;;2.05;70.10
43298;BME280;28892;55.640;37.532;2022-12-11T11:03:25;98290.53;;;2.01;69.96
43298;BME280;28892;55.640;37.532;2022-12-11T11:06:21;98293.38;;;2.08;69.55
43298;BME280;28892;55.640;37.532;2022-12-11T11:08:50;98281.19;;;1.80;69.71
43298;BME280;28892;55.640;37.532;2022-12-11T11:13:48;98272.81;;;1.77;69.23
43298;BME280;28892;55.640;37.532;2022-12-11T11:16:17;98284.78;;;1.61;70.15
43298;BME280;28892;55.640;37.532;2022-12-11T11:18:54;98287.25;;;1.63;71.03
43298;BME280;28892;55.640;37.532;2022-12-11T11:21:23;98292.16;;;1.66;70.97
43298;BME280;28892;55.640;37.532;2022-12-11T11:23:51;98285.31;;;1.65;70.45
43298;BME280;28892;55.640;37.532;2022-12-11T11:26:18;98268.94;;;1.63;70.51
43298;BME280;28892;55.640;37.532;2022-12-11T11:28:53;98267.00;;;1.65;70.46
43298;BME280;28892;55.640;37.532;2022-12-11T11:31:28;98280.78;;;1.57;70.08
43298;BME280;28892;55.640;37.532;2022-12-11T11:34:01;98280.28;;;1.53;69.89
43298;BME280;28892;55.640;37.532;2022-12-11T11:36:32;98264.53;;;1.63;70.31
43298;BME280;28892;55.640;37.532;2022-12-11T11:44:37;98285.06;;;1.58;70.67
43298;BME280;28892;55.640;37.532;2022-12-11T11:47:16;98281.56;;;1.67;70.45
43298;BME280;28892;55.640;37.532;2022-12-11T11:52:49;98286.63;;;1.51;70.28
43298;BME280;28892;55.640;37.532;2022-12-11T11:55:50;98290.31;;;1.58;70.85
43298;BME280;28892;55.640;37.532;2022-12-11T11:58:48;98297.63;;;1.55;70.85
43298;BME280;28892;55.640;37.532;2022-12-11T12:01:18;98277.53;;;1.73;69.30
43298;BME280;28892;55.640;37.532;2022-12-11T12:03:45;98280.06;;;1.47;69.68
43298;BME280;28892;55.640;37.532;2022-12-11T12:06:30;98286.84;;;1.30;70.90
43298;BME280;28892;55.640;37.532;2022-12-11T12:09:27;98286.50;;;1.24;71.66
43298;BME280;28892;55.640;37.532;2022-12-11T12:14:42;98294.03;;;1.28;71.14
43298;BME280;28892;55.640;37.532;2022-12-11T12:25:51;98302.38;;;1.41;70.44
43298;BME280;28892;55.640;37.532;2022-12-11T12:29:08;98306.31;;;1.45;70.20
43298;BME280;28892;55.640;37.532;2022-12-11T12:42:55;98296.38;;;1.31;70.71
43298;BME280;28892;55.640;37.532;2022-12-11T12:45:52;98296.22;;;1.32;70.65
43298;BME280;28892;55.640;37.532;2022-12-11T12:48:25;98292.25;;;1.28;70.06
43298;BME280;28892;55.640;37.532;2022-12-11T12:51:13;98297.03;;;1.33;70.32
43298;BME280;28892;55.640;37.532;2022-12-11T12:53:52;98287.25;;;1.35;69.98
43298;BME280;28892;55.640;37.532;2022-12-11T12:56:20;98297.59;;;1.27;69.84
43298;BME280;28892;55.640;37.532;2022-12-11T12:58:46;98285.50;;;1.25;69.75
43298;BME280;28892;55.640;37.532;2022-12-11T13:01:19;98287.78;;;1.38;69.86
43298;BME280;28892;55.640;37.532;2022-12-11T13:03:50;98297.31;;;1.30;70.20
43298;BME280;28892;55.640;37.532;2022-12-11T13:06:38;98303.28;;;1.50;69.85
43298;BME280;28892;55.640;37.532;2022-12-11T13:11:46;98289.56;;;1.38;70.04
43298;BME280;28892;55.640;37.532;2022-12-11T13:16:51;98269.34;;;1.40;69.64
43298;BME280;28892;55.640;37.532;2022-12-11T13:22:01;98262.19;;;1.14;70.68
43298;BME280;28892;55.640;37.532;2022-12-11T13:24:29;98269.38;;;1.12;69.92
43298;BME280;28892;55.640;37.532;2022-12-11T13:26:55;98247.50;;;1.13;69.87
43298;BME280;28892;55.640;37.532;2022-12-11T13:29:39;98234.91;;;1.27;69.77
43298;BME280;28892;55.640;37.532;2022-12-11T13:38:06;98241.03;;;1.35;70.07
43298;BME280;28892;55.640;37.532;2022-12-11T13:40:37;98230.53;;;1.45;69.95
43298;BME280;28892;55.640;37.532;2022-12-11T13:43:19;98227.50;;;1.22;69.88
43298;BME280;28892;55.640;37.532;2022-12-11T13:45:59;98220.59;;;1.31;70.12
43298;BME280;28892;55.640;37.532;2022-12-11T13:48:48;98230.59;;;1.35;70.19
43298;BME280;28892;55.640;37.532;2022-12-11T13:51:18;98222.34;;;1.12;70.11
43298;BME280;28892;55.640;37.532;2022-12-11T13:53:44;98221.56;;;1.02;70.73
43298;BME280;28892;55.640;37.532;2022-12-11T13:56:18;98230.84;;;1.14;70.79
43298;BME280;28892;55.640;37.532;2022-12-11T13:58:45;98210.53;;;1.08;70.55
43298;BME280;28892;55.640;37.532;2022-12-11T14:01:15;98218.69;;;1.23;70.27
43298;BME280;28892;55.640;37.532;2022-12-11T14:03:50;98194.47;;;1.31;69.88
43298;BME280;28892;55.640;37.532;2022-12-11T14:06:17;98207.88;;;1.18;70.11
43298;BME280;28892;55.640;37.532;2022-12-11T14:08:44;98199.75;;;1.21;70.14
43298;BME280;28892;55.640;37.532;2022-12-11T14:11:25;98205.78;;;1.03;70.83
43298;BME280;28892;55.640;37.532;2022-12-11T14:13:56;98189.06;;;1.14;70.16
43298;BME280;28892;55.640;37.532;2022-12-11T14:16:24;98163.72;;;0.96;70.80
43298;BME280;28892;55.640;37.532;2022-12-11T14:18:52;98185.94;;;1.29;70.10
43298;BME280;28892;55.640;37.532;2022-12-11T14:21:22;98192.19;;;1.00;70.60
43298;BME280;28892;55.640;37.532;2022-12-11T14:23:54;98185.44;;;1.25;70.20
43298;BME280;28892;55.640;37.532;2022-12-11T14:26:28;98199.56;;;1.04;70.49
43298;BME280;28892;55.640;37.532;2022-12-11T14:28:55;98218.00;;;1.03;70.40
43298;BME280;28892;55.640;37.532;2022-12-11T14:31:30;98196.56;;;0.99;70.43
43298;BME280;28892;55.640;37.532;2022-12-11T14:34:11;98193.09;;;1.08;70.50
43298;BME280;28892;55.640;37.532;2022-12-11T14:36:40;98210.84;;;1.23;70.30
43298;BME280;28892;55.640;37.532;2022-12-11T14:39:15;98202.88;;;1.06;70.44
43298;BME280;28892;55.640;37.532;2022-12-11T14:44:43;98191.97;;;1.11;70.43
43298;BME280;28892;55.640;37.532;2022-12-11T14:47:18;98205.69;;;1.13;70.63
43298;BME280;28892;55.640;37.532;2022-12-11T14:49:52;98195.22;;;0.95;70.81
43298;BME280;28892;55.640;37.532;2022-12-11T14:52:32;98207.53;;;1.03;71.17
43298;BME280;28892;55.640;37.532;2022-12-11T14:55:15;98186.75;;;1.11;71.08
43298;BME280;28892;55.640;37.532;2022-12-11T14:57:44;98179.59;;;0.85;71.22
43298;BME280;28892;55.640;37.532;2022-12-11T15:00:27;98182.97;;;0.95;71.51
43298;BME280;28892;55.640;37.532;2022-12-11T15:05:26;98178.19;;;0.91;72.15
43298;BME280;28892;55.640;37.532;2022-12-11T15:10:41;98183.47;;;1.09;72.00
43298;BME280;28892;55.640;37.532;2022-12-11T15:13:22;98157.06;;;1.12;71.44
43298;BME280;28892;55.640;37.532;2022-12-11T15:15:48;98141.38;;;1.12;71.80
43298;BME280;28892;55.640;37.532;2022-12-11T15:21:00;98124.28;;;1.18;71.68